createdAt,value
2018-09-19T00:02:04.339Z,-71
2018-09-19T00:04:35.258Z,-70
2018-09-19T00:07:06.218Z,-70
2018-09-19T00:09:36.696Z,-71
2018-09-19T00:12:07.079Z,-71
2018-09-19T00:14:37.391Z,-71
2018-09-19T00:17:07.736Z,-70
2018-09-19T00:19:38.267Z,-70
2018-09-19T00:22:09.516Z,-70
2018-09-19T00:24:40.543Z,-70
2018-09-19T00:27:17.664Z,-71
2018-09-19T00:29:57.992Z,-71
2018-09-19T00:32:28.852Z,-71
2018-09-19T00:34:59.414Z,-71
2018-09-19T00:37:29.893Z,-71
2018-09-19T00:40:03.993Z,-71
2018-09-19T00:42:34.444Z,-71
2018-09-19T00:45:05.397Z,-71
2018-09-19T00:47:38.333Z,-71
2018-09-19T00:50:09.458Z,-70
2018-09-19T00:52:42.104Z,-70
2018-09-19T00:55:15.509Z,-70
2018-09-19T00:57:50.425Z,-72
2018-09-19T01:00:21.324Z,-70
2018-09-19T01:02:54.541Z,-70
2018-09-19T01:05:25.152Z,-70
2018-09-19T01:07:55.701Z,-70
2018-09-19T01:10:26.352Z,-70
2018-09-19T01:13:08.032Z,-71
2018-09-19T01:15:46.633Z,-70
2018-09-19T01:18:20.906Z,-72
2018-09-19T01:23:55.451Z,-71
2018-09-19T01:26:25.719Z,-70
2018-09-19T01:28:57.190Z,-70
2018-09-19T01:31:27.468Z,-69
2018-09-19T01:34:01.866Z,-72
2018-09-19T01:37:02.764Z,-72
2018-09-19T01:39:42.341Z,-72
2018-09-19T01:42:20.841Z,-71
2018-09-19T01:44:51.575Z,-71
2018-09-19T01:47:21.951Z,-71
2018-09-19T01:49:53.549Z,-71
2018-09-19T01:52:24.443Z,-73
2018-09-19T01:54:54.811Z,-74
2018-09-19T01:57:35.675Z,-73
2018-09-19T02:00:06.583Z,-72
2018-09-19T02:02:36.819Z,-73
2018-09-19T02:05:07.255Z,-72
2018-09-19T02:07:37.519Z,-72
2018-09-19T02:10:07.851Z,-72
2018-09-19T02:12:38.669Z,-72
2018-09-19T02:15:11.074Z,-72
2018-09-19T02:17:41.618Z,-73
2018-09-19T02:20:14.268Z,-73
2018-09-19T02:22:46.820Z,-72
2018-09-19T02:25:18.952Z,-73
2018-09-19T02:27:49.287Z,-72
2018-09-19T02:30:20.566Z,-72
2018-09-19T02:32:54.873Z,-73
2018-09-19T02:35:28.927Z,-72
2018-09-19T02:37:59.218Z,-72
2018-09-19T02:40:29.477Z,-72
2018-09-19T02:42:59.873Z,-72
2018-09-19T02:45:34.927Z,-71
2018-09-19T02:48:06.759Z,-72
2018-09-19T02:50:37.481Z,-72
2018-09-19T02:53:12.727Z,-72
2018-09-19T02:55:43.706Z,-72
2018-09-19T02:58:15.598Z,-71
2018-09-19T03:00:46.172Z,-71
2018-09-19T03:03:16.402Z,-71
2018-09-19T03:05:46.799Z,-71
2018-09-19T03:08:17.138Z,-71
2018-09-19T03:10:47.475Z,-71
2018-09-19T03:13:18.029Z,-71
2018-09-19T03:15:48.410Z,-71
2018-09-19T03:18:18.725Z,-74
2018-09-19T03:20:49.096Z,-71
2018-09-19T03:23:19.385Z,-71
2018-09-19T03:25:50.160Z,-71
2018-09-19T03:28:20.421Z,-71
2018-09-19T03:30:50.781Z,-71
2018-09-19T03:33:21.069Z,-71
2018-09-19T03:35:52.086Z,-71
2018-09-19T03:38:22.343Z,-71
2018-09-19T03:40:52.836Z,-71
2018-09-19T03:43:23.081Z,-71
2018-09-19T03:45:53.353Z,-71
2018-09-19T03:48:23.588Z,-71
2018-09-19T03:50:54.203Z,-71
2018-09-19T03:53:24.849Z,-71
2018-09-19T03:55:55.234Z,-72
2018-09-19T03:58:25.518Z,-71
2018-09-19T04:00:56.095Z,-72
2018-09-19T04:03:26.352Z,-72
2018-09-19T04:05:56.610Z,-72
2018-09-19T04:08:26.850Z,-72
2018-09-19T04:10:57.230Z,-72
2018-09-19T04:13:27.533Z,-73
2018-09-19T04:15:57.799Z,-72
2018-09-19T04:18:28.126Z,-73
2018-09-19T04:20:58.434Z,-73
2018-09-19T04:23:28.728Z,-73
2018-09-19T04:25:58.995Z,-73
2018-09-19T04:28:29.260Z,-73
2018-09-19T04:30:59.540Z,-73
2018-09-19T04:33:29.780Z,-73
2018-09-19T04:36:00.090Z,-73
2018-09-19T04:38:30.331Z,-73
2018-09-19T04:41:00.613Z,-73
2018-09-19T04:43:30.905Z,-73
2018-09-19T04:46:01.158Z,-73
2018-09-19T04:48:31.406Z,-73
2018-09-19T04:51:01.682Z,-73
2018-09-19T04:53:32.006Z,-72
2018-09-19T04:56:02.532Z,-73
2018-09-19T04:58:32.882Z,-74
2018-09-19T05:01:03.438Z,-74
2018-09-19T05:03:34.496Z,-74
2018-09-19T05:06:04.778Z,-74
2018-09-19T05:08:35.139Z,-74
2018-09-19T05:11:05.826Z,-74
2018-09-19T05:13:36.071Z,-74
2018-09-19T05:16:06.832Z,-74
2018-09-19T05:18:37.154Z,-74
2018-09-19T05:21:07.641Z,-73
2018-09-19T05:23:37.966Z,-71
2018-09-19T05:26:08.255Z,-72
2018-09-19T05:28:53.349Z,-72
2018-09-19T05:31:24.068Z,-72
2018-09-19T05:33:54.590Z,-72
2018-09-19T05:36:24.991Z,-73
2018-09-19T05:38:55.463Z,-73
2018-09-19T05:41:26.168Z,-73
2018-09-19T05:43:56.592Z,-72
2018-09-19T05:46:27.074Z,-72
2018-09-19T05:48:57.514Z,-73
2018-09-19T05:51:28.458Z,-73
2018-09-19T05:54:02.665Z,-73
2018-09-19T05:56:36.902Z,-73
2018-09-19T05:59:12.817Z,-73
2018-09-19T06:01:57.512Z,-75
2018-09-19T06:04:28.032Z,-74
2018-09-19T06:06:58.611Z,-73
2018-09-19T06:09:28.984Z,-73
2018-09-19T06:11:59.282Z,-72
2018-09-19T06:14:33.839Z,-73
2018-09-19T06:17:12.560Z,-73
2018-09-19T06:19:44.850Z,-73
2018-09-19T06:22:15.203Z,-72
2018-09-19T06:24:45.634Z,-73
2018-09-19T06:27:15.949Z,-72
2018-09-19T06:29:46.227Z,-73
2018-09-19T06:32:16.497Z,-73
2018-09-19T06:34:46.809Z,-74
2018-09-19T06:37:17.062Z,-73
2018-09-19T06:39:47.310Z,-73
2018-09-19T06:42:18.017Z,-73
2018-09-19T06:44:48.339Z,-73
2018-09-19T06:47:18.728Z,-73
2018-09-19T06:49:49.016Z,-73
2018-09-19T06:52:19.387Z,-73
2018-09-19T06:54:49.813Z,-73
2018-09-19T06:57:20.139Z,-73
2018-09-19T06:59:51.017Z,-71
2018-09-19T07:02:21.320Z,-71
2018-09-19T07:04:52.246Z,-71
2018-09-19T07:07:22.579Z,-71
2018-09-19T07:09:52.945Z,-71
2018-09-19T07:12:23.209Z,-71
2018-09-19T07:14:53.486Z,-71
2018-09-19T07:17:23.794Z,-71
2018-09-19T07:19:54.235Z,-71
2018-09-19T07:22:24.574Z,-71
2018-09-19T07:24:54.851Z,-71
2018-09-19T07:27:27.091Z,-71
2018-09-19T07:29:57.793Z,-70
2018-09-19T07:32:28.220Z,-71
2018-09-19T07:34:58.474Z,-70
2018-09-19T07:37:28.782Z,-71
2018-09-19T07:39:59.037Z,-71
2018-09-19T07:42:30.458Z,-71
2018-09-19T07:45:00.747Z,-70
2018-09-19T07:47:31.174Z,-70
2018-09-19T07:50:01.500Z,-71
2018-09-19T07:52:31.912Z,-71
2018-09-19T07:55:02.273Z,-71
2018-09-19T07:57:32.575Z,-71
2018-09-19T08:00:03.134Z,-71
2018-09-19T08:02:33.454Z,-71
2018-09-19T08:05:03.821Z,-71
2018-09-19T08:07:34.197Z,-71
2018-09-19T08:10:05.126Z,-71
2018-09-19T08:12:36.128Z,-71
2018-09-19T08:15:07.029Z,-71
2018-09-19T08:17:37.458Z,-71
2018-09-19T08:20:07.717Z,-71
2018-09-19T08:22:38.185Z,-71
2018-09-19T08:25:08.522Z,-71
2018-09-19T08:27:39.014Z,-71
2018-09-19T08:30:09.431Z,-71
2018-09-19T08:32:39.769Z,-71
2018-09-19T08:35:10.066Z,-71
2018-09-19T08:37:40.543Z,-71
2018-09-19T08:40:10.820Z,-71
2018-09-19T08:42:41.526Z,-71
2018-09-19T08:45:12.040Z,-71
2018-09-19T08:47:42.405Z,-71
2018-09-19T08:50:12.736Z,-71
2018-09-19T08:52:43.662Z,-72
2018-09-19T08:55:14.204Z,-72
2018-09-19T08:57:44.669Z,-71
2018-09-19T09:00:15.015Z,-72
2018-09-19T09:02:45.758Z,-72
2018-09-19T09:05:16.137Z,-72
2018-09-19T09:07:46.430Z,-71
2018-09-19T09:10:16.784Z,-71
2018-09-19T09:12:47.123Z,-72
2018-09-19T09:15:17.393Z,-72
2018-09-19T09:17:47.703Z,-71
2018-09-19T09:20:18.021Z,-73
2018-09-19T09:22:48.505Z,-71
2018-09-19T09:25:18.782Z,-71
2018-09-19T09:27:49.199Z,-71
2018-09-19T09:30:19.759Z,-71
2018-09-19T09:32:50.063Z,-71
2018-09-19T09:35:20.347Z,-71
2018-09-19T09:37:51.410Z,-71
2018-09-19T09:40:21.810Z,-71
2018-09-19T09:42:52.207Z,-72
2018-09-19T09:45:22.491Z,-72
2018-09-19T09:47:53.329Z,-72
2018-09-19T09:50:23.739Z,-71
2018-09-19T09:52:54.027Z,-71
2018-09-19T09:55:24.306Z,-70
2018-09-19T09:57:54.603Z,-70
2018-09-19T10:00:30.111Z,-71
2018-09-19T10:03:00.857Z,-71
2018-09-19T10:05:31.177Z,-70
2018-09-19T10:08:01.477Z,-70
2018-09-19T10:10:31.741Z,-72
2018-09-19T10:13:02.062Z,-71
2018-09-19T10:15:32.338Z,-71
2018-09-19T10:18:02.720Z,-71
2018-09-19T10:20:33.022Z,-70
2018-09-19T10:23:03.630Z,-70
2018-09-19T10:25:37.643Z,-72
2018-09-19T10:28:08.970Z,-72
2018-09-19T10:30:41.047Z,-71
2018-09-19T10:33:12.682Z,-71
2018-09-19T10:35:54.606Z,-71
2018-09-19T10:38:26.026Z,-71
2018-09-19T10:40:56.659Z,-71
2018-09-19T10:43:28.588Z,-71
2018-09-19T10:46:00.062Z,-71
2018-09-19T10:48:30.899Z,-71
2018-09-19T10:51:01.208Z,-71
2018-09-19T10:53:31.568Z,-71
2018-09-19T10:56:02.697Z,-72
2018-09-19T10:58:32.966Z,-71
2018-09-19T11:01:03.426Z,-71
2018-09-19T11:03:34.369Z,-71
2018-09-19T11:06:04.786Z,-71
2018-09-19T11:08:36.093Z,-71
2018-09-19T11:11:06.980Z,-71
2018-09-19T11:13:37.365Z,-71
2018-09-19T11:16:08.505Z,-71
2018-09-19T11:18:39.064Z,-71
2018-09-19T11:21:09.567Z,-71
2018-09-19T11:23:40.197Z,-71
2018-09-19T11:26:10.700Z,-70
2018-09-19T11:28:41.497Z,-71
2018-09-19T11:31:11.815Z,-71
2018-09-19T11:33:42.862Z,-71
2018-09-19T11:36:13.222Z,-72
2018-09-19T11:38:44.018Z,-71
2018-09-19T11:41:14.345Z,-71
2018-09-19T11:43:44.991Z,-71
2018-09-19T11:46:15.259Z,-71
2018-09-19T11:48:48.769Z,-71
2018-09-19T11:51:20.610Z,-72
2018-09-19T11:53:53.716Z,-71
2018-09-19T11:56:27.311Z,-71
2018-09-19T11:59:06.794Z,-71
2018-09-19T12:01:38.039Z,-73
2018-09-19T12:04:13.726Z,-73
2018-09-19T12:06:55.951Z,-73
2018-09-19T12:09:30.659Z,-71
2018-09-19T12:12:01.416Z,-71
2018-09-19T12:14:31.825Z,-71
2018-09-19T12:17:02.669Z,-71
2018-09-19T12:19:33.211Z,-72
2018-09-19T12:22:03.638Z,-72
2018-09-19T12:24:34.149Z,-74
2018-09-19T12:27:04.642Z,-71
2018-09-19T12:29:35.033Z,-71
2018-09-19T12:32:08.029Z,-71
2018-09-19T12:34:39.147Z,-73
2018-09-19T12:37:10.229Z,-73
2018-09-19T12:39:41.089Z,-71
2018-09-19T12:42:11.455Z,-71
2018-09-19T12:44:42.347Z,-71
2018-09-19T12:47:12.768Z,-71
2018-09-19T12:49:43.166Z,-71
2018-09-19T12:52:14.162Z,-73
2018-09-19T12:54:44.697Z,-72
2018-09-19T12:57:16.012Z,-72
2018-09-19T12:59:46.297Z,-72
2018-09-19T13:02:16.639Z,-72
2018-09-19T13:04:47.338Z,-72
2018-09-19T13:07:28.137Z,-71
2018-09-19T13:10:05.689Z,-72
2018-09-19T13:12:36.415Z,-72
2018-09-19T13:15:07.883Z,-72
2018-09-19T13:17:38.412Z,-73
2018-09-19T13:20:09.977Z,-73
2018-09-19T13:22:40.690Z,-73
2018-09-19T13:25:11.671Z,-73
2018-09-19T13:27:51.041Z,-73
2018-09-19T13:30:30.800Z,-73
2018-09-19T13:46:52.750Z,-73
2018-09-19T13:49:29.544Z,-74
2018-09-19T13:52:02.911Z,-74
2018-09-19T13:54:36.792Z,-74
2018-09-19T13:57:07.734Z,-74
2018-09-19T13:59:49.768Z,-73
2018-09-19T14:02:27.612Z,-74
2018-09-19T14:04:59.583Z,-75
2018-09-19T14:07:32.578Z,-75
2018-09-19T14:10:06.563Z,-74
2018-09-19T14:12:39.842Z,-74
2018-09-19T14:18:29.972Z,-73
2018-09-19T14:21:05.228Z,-73
2018-09-19T14:23:37.644Z,-73
2018-09-19T14:26:10.494Z,-73
2018-09-19T14:28:44.670Z,-72
2018-09-19T14:31:16.612Z,-72
2018-09-19T14:33:53.062Z,-73
2018-09-19T14:36:27.193Z,-73
2018-09-19T14:38:58.350Z,-74
2018-09-19T14:44:53.656Z,-74
2018-09-19T14:47:26.218Z,-73
2018-09-19T14:49:57.671Z,-74
2018-09-19T14:52:30.270Z,-73
2018-09-19T14:55:02.228Z,-73
2018-09-19T14:57:33.691Z,-73
2018-09-19T15:00:06.536Z,-73
2018-09-19T15:02:43.815Z,-73
2018-09-19T15:05:19.048Z,-74
2018-09-19T15:07:50.287Z,-73
2018-09-19T15:10:23.660Z,-74
2018-09-19T15:12:54.627Z,-74
2018-09-19T15:15:26.822Z,-73
2018-09-19T15:17:59.170Z,-73
2018-09-19T15:20:34.464Z,-74
2018-09-19T15:23:11.388Z,-74
2018-09-19T15:25:42.247Z,-74
2018-09-19T15:28:13.470Z,-74
2018-09-19T15:30:46.428Z,-74
2018-09-19T15:33:18.589Z,-73
2018-09-19T15:35:50.031Z,-73
2018-09-19T15:38:24.735Z,-73
2018-09-19T15:40:56.505Z,-73
2018-09-19T15:43:27.960Z,-73
2018-09-19T15:45:59.947Z,-73
2018-09-19T15:48:32.551Z,-72
2018-09-19T15:51:05.679Z,-73
2018-09-19T15:53:36.400Z,-73
2018-09-19T15:56:07.008Z,-74
2018-09-19T15:58:38.144Z,-73
2018-09-19T16:01:11.370Z,-73
2018-09-19T16:03:45.729Z,-73
2018-09-19T16:06:16.872Z,-73
2018-09-19T16:08:50.172Z,-73
2018-09-19T16:11:21.144Z,-72
2018-09-19T16:13:52.807Z,-72
2018-09-19T16:16:23.721Z,-73
2018-09-19T16:18:54.503Z,-72
2018-09-19T16:21:27.195Z,-72
2018-09-19T16:23:58.635Z,-72
2018-09-19T16:26:30.750Z,-73
2018-09-19T16:29:01.774Z,-73
2018-09-19T16:31:35.012Z,-72
2018-09-19T16:34:18.500Z,-72
2018-09-19T16:36:53.189Z,-72
2018-09-19T16:39:34.993Z,-72
2018-09-19T16:42:05.804Z,-71
2018-09-19T16:44:37.953Z,-71
2018-09-19T16:47:09.374Z,-72
2018-09-19T16:49:42.214Z,-72
2018-09-19T16:52:14.151Z,-71
2018-09-19T16:54:46.340Z,-72
2018-09-19T16:57:19.011Z,-72
2018-09-19T16:59:50.071Z,-72
2018-09-19T17:02:22.379Z,-72
2018-09-19T17:04:52.836Z,-72
2018-09-19T17:07:23.559Z,-72
2018-09-19T17:09:54.033Z,-72
2018-09-19T17:12:26.562Z,-72
2018-09-19T17:15:00.562Z,-70
2018-09-19T17:17:35.374Z,-70
2018-09-19T17:20:07.317Z,-70
2018-09-19T17:22:43.770Z,-71
2018-09-19T17:25:14.898Z,-70
2018-09-19T17:27:45.664Z,-70
2018-09-19T17:30:16.002Z,-70
2018-09-19T17:32:49.268Z,-70
2018-09-19T17:35:20.598Z,-70
2018-09-19T17:37:55.895Z,-70
2018-09-19T17:40:27.507Z,-70
2018-09-19T17:42:59.569Z,-70
2018-09-19T17:45:30.626Z,-70
2018-09-19T17:48:00.932Z,-70
2018-09-19T17:50:31.910Z,-70
2018-09-19T17:53:02.845Z,-71
2018-09-19T17:55:34.235Z,-71
2018-09-19T17:58:07.652Z,-71
2018-09-19T18:00:38.760Z,-71
2018-09-19T18:03:11.098Z,-71
2018-09-19T18:05:42.530Z,-71
2018-09-19T18:08:16.034Z,-70
2018-09-19T18:10:51.312Z,-70
2018-09-19T18:13:23.103Z,-71
2018-09-19T18:15:54.847Z,-71
2018-09-19T18:18:25.419Z,-71
2018-09-19T18:20:55.743Z,-71
2018-09-19T18:23:28.029Z,-70
2018-09-19T18:25:59.359Z,-70
2018-09-19T18:28:30.347Z,-70
2018-09-19T18:31:04.142Z,-70
2018-09-19T18:33:38.134Z,-70
2018-09-19T18:36:10.320Z,-70
2018-09-19T18:38:40.690Z,-71
2018-09-19T18:41:10.981Z,-71
2018-09-19T18:43:42.186Z,-70
2018-09-19T18:46:13.578Z,-71
2018-09-19T18:48:44.374Z,-70
2018-09-19T18:51:14.947Z,-71
2018-09-19T18:53:46.862Z,-71
2018-09-19T18:56:18.416Z,-71
2018-09-19T18:58:51.374Z,-71
2018-09-19T19:01:40.242Z,-71
2018-09-19T19:04:14.365Z,-72
2018-09-19T19:06:51.679Z,-71
2018-09-19T19:09:23.309Z,-71
2018-09-19T19:11:55.383Z,-71
2018-09-19T19:14:25.657Z,-71
2018-09-19T19:16:58.600Z,-71
2018-09-19T19:19:29.823Z,-71
2018-09-19T19:22:01.796Z,-71
2018-09-19T19:24:32.910Z,-72
2018-09-19T19:27:03.875Z,-72
2018-09-19T19:29:34.532Z,-71
2018-09-19T19:32:05.244Z,-71
2018-09-19T19:34:36.698Z,-72
2018-09-19T19:37:07.286Z,-71
2018-09-19T19:39:40.163Z,-72
2018-09-19T19:42:10.539Z,-71
2018-09-19T19:44:41.119Z,-72
2018-09-19T19:47:11.440Z,-71
2018-09-19T19:49:42.622Z,-71
2018-09-19T19:52:19.523Z,-71
2018-09-19T19:54:49.921Z,-72
2018-09-19T19:57:20.427Z,-71
2018-09-19T19:59:51.049Z,-71
2018-09-19T20:02:22.418Z,-71
2018-09-19T20:04:54.161Z,-71
2018-09-19T20:07:25.042Z,-71
2018-09-19T20:09:56.741Z,-71
2018-09-19T20:12:28.356Z,-71
2018-09-19T20:14:59.743Z,-71
2018-09-19T20:17:30.829Z,-71
2018-09-19T20:20:02.439Z,-71
2018-09-19T20:22:33.411Z,-71
2018-09-19T20:25:05.296Z,-71
2018-09-19T20:27:37.438Z,-71
2018-09-19T20:30:12.247Z,-72
2018-09-19T20:32:44.189Z,-72
2018-09-19T20:35:17.385Z,-72
2018-09-19T20:37:54.458Z,-72
2018-09-19T20:40:26.393Z,-72
2018-09-19T20:42:56.862Z,-72
2018-09-19T20:45:27.310Z,-72
2018-09-19T20:47:58.910Z,-72
2018-09-19T20:50:31.205Z,-72
2018-09-19T20:53:01.581Z,-72
2018-09-19T20:55:32.439Z,-72
2018-09-19T20:58:03.027Z,-72
2018-09-19T21:00:33.566Z,-72
2018-09-19T21:03:04.038Z,-72
2018-09-19T21:05:34.389Z,-72
2018-09-19T21:08:05.218Z,-72
2018-09-19T21:10:36.971Z,-72
2018-09-19T21:13:07.286Z,-72
2018-09-19T21:15:37.965Z,-72
2018-09-19T21:18:12.357Z,-73
2018-09-19T21:20:47.747Z,-73
2018-09-19T21:23:25.552Z,-73
2018-09-19T21:26:12.411Z,-72
2018-09-19T21:28:52.553Z,-73
2018-09-19T21:31:27.939Z,-73
2018-09-19T21:33:58.466Z,-71
2018-09-19T21:36:29.701Z,-71
2018-09-19T21:39:00.108Z,-71
2018-09-19T21:41:30.805Z,-71
2018-09-19T21:44:04.160Z,-71
2018-09-19T21:46:37.284Z,-71
2018-09-19T21:49:10.417Z,-70
2018-09-19T21:51:41.456Z,-71
2018-09-19T21:54:12.108Z,-71
2018-09-19T21:56:43.648Z,-71
2018-09-19T21:59:13.957Z,-71
2018-09-19T22:01:44.525Z,-71
2018-09-19T22:04:15.093Z,-71
2018-09-19T22:06:47.118Z,-71
2018-09-19T22:09:17.787Z,-70
2018-09-19T22:11:51.035Z,-69
2018-09-19T22:14:21.522Z,-69
2018-09-19T22:16:52.278Z,-69
2018-09-19T22:19:23.890Z,-69
2018-09-19T22:21:54.299Z,-69
2018-09-19T22:24:26.507Z,-68
2018-09-19T22:27:01.129Z,-69
2018-09-19T22:29:32.087Z,-69
2018-09-19T22:32:02.734Z,-69
2018-09-19T22:34:33.054Z,-69
2018-09-19T22:37:03.769Z,-69
2018-09-19T22:39:34.218Z,-69
2018-09-19T22:42:04.634Z,-69
2018-09-19T22:44:34.993Z,-70
2018-09-19T22:47:07.214Z,-70
2018-09-19T22:49:37.961Z,-69
2018-09-19T22:52:08.887Z,-69
2018-09-19T22:54:40.465Z,-70
2018-09-19T22:57:11.845Z,-69
2018-09-19T22:59:43.178Z,-69
2018-09-19T23:02:14.353Z,-70
2018-09-19T23:04:44.808Z,-69
2018-09-19T23:07:15.548Z,-70
2018-09-19T23:09:46.228Z,-69
2018-09-19T23:12:16.505Z,-69
2018-09-19T23:14:46.912Z,-70
2018-09-19T23:17:17.439Z,-69
2018-09-19T23:19:48.140Z,-69
2018-09-19T23:22:18.431Z,-69
2018-09-19T23:24:48.814Z,-69
2018-09-19T23:27:19.192Z,-69
2018-09-19T23:29:50.079Z,-69
2018-09-19T23:32:20.673Z,-69
2018-09-19T23:34:51.087Z,-70
2018-09-19T23:37:21.790Z,-69
2018-09-19T23:39:52.761Z,-69
2018-09-19T23:42:23.163Z,-69
2018-09-19T23:44:54.134Z,-69
2018-09-19T23:47:24.568Z,-69
2018-09-19T23:49:58.360Z,-69
2018-09-19T23:52:33.862Z,-69
2018-09-19T23:55:04.407Z,-69
2018-09-19T23:57:36.857Z,-69
